Time;durP1;ratioP1;P1;durP2;ratioP2;P2;SDS_P1;SDS_P2;PMS_P1;PMS_P2;Temp;Humidity;BMP_temperature;BMP_pressure;BME280_temperature;BME280_humidity;BME280_pressure;Samples;Min_cycle;Max_cycle;Signal;HPM_P1;HPM_P2
2023/10/30 00:01:03;;;;;;;5.13;0.90;;;9.50;99.90;;;;;;5095515;28;20044;-25
2023/10/30 00:03:29;;;;;;;7.25;1.70;;;9.50;99.90;;;;;;5095248;28;20394;-26
2023/10/30 00:05:56;;;;;;;5.63;1.38;;;9.50;99.90;;;;;;5095127;28;20044;-26
2023/10/30 00:08:22;;;;;;;6.57;1.48;;;9.60;99.90;;;;;;5095160;28;20063;-26
2023/10/30 00:10:48;;;;;;;7.35;0.95;;;9.50;99.90;;;;;;5095030;28;20119;-25
2023/10/30 00:13:14;;;;;;;5.07;0.98;;;9.60;99.90;;;;;;5094952;28;20088;-25
2023/10/30 00:15:39;;;;;;;3.97;1.00;;;9.60;99.90;;;;;;5093408;28;20114;-26
2023/10/30 00:18:05;;;;;;;8.65;1.15;;;9.50;99.90;;;;;;5094899;28;20043;-26
2023/10/30 00:20:31;;;;;;;5.82;0.95;;;9.50;99.90;;;;;;5093903;28;20075;-26
2023/10/30 00:22:57;;;;;;;8.43;1.60;;;9.50;99.90;;;;;;5094552;28;20052;-26
2023/10/30 00:25:23;;;;;;;3.53;0.82;;;9.40;99.90;;;;;;5094836;28;20047;-27
2023/10/30 00:27:48;;;;;;;6.82;0.93;;;9.40;99.90;;;;;;5093776;28;20044;-25
2023/10/30 00:30:14;;;;;;;11.73;1.10;;;9.30;99.90;;;;;;5093428;28;20044;-25
2023/10/30 00:32:40;;;;;;;6.95;0.77;;;9.20;99.90;;;;;;5093745;28;20048;-25
2023/10/30 00:35:06;;;;;;;6.85;0.90;;;9.20;99.90;;;;;;5094714;28;20048;-25
2023/10/30 00:37:32;;;;;;;9.00;1.23;;;9.20;99.90;;;;;;5094578;28;20131;-25
2023/10/30 00:39:58;;;;;;;9.32;1.05;;;9.20;99.90;;;;;;5094511;28;20136;-25
2023/10/30 00:42:26;;;;;;;6.07;0.60;;;9.20;99.90;;;;;;5094483;28;20040;-25
2023/10/30 00:44:52;;;;;;;4.53;0.85;;;9.20;99.90;;;;;;5094519;28;20126;-26
2023/10/30 00:47:17;;;;;;;8.30;1.30;;;9.10;99.90;;;;;;5094366;28;20091;-25
2023/10/30 00:49:43;;;;;;;6.43;1.40;;;9.10;99.90;;;;;;5095243;28;20043;-25
2023/10/30 00:52:09;;;;;;;3.55;0.75;;;9.00;99.90;;;;;;5093986;28;20392;-25
2023/10/30 00:54:34;;;;;;;4.43;0.60;;;9.00;99.90;;;;;;5093137;28;20076;-25
2023/10/30 00:57:00;;;;;;;4.72;1.17;;;9.00;99.90;;;;;;5094219;28;20092;-25
2023/10/30 00:59:26;;;;;;;4.32;0.60;;;8.90;99.90;;;;;;5094293;28;20043;-25
2023/10/30 01:01:52;;;;;;;5.25;0.80;;;8.90;99.90;;;;;;5094686;28;20051;-25
2023/10/30 01:04:18;;;;;;;7.03;0.60;;;8.90;99.90;;;;;;5059542;28;20051;-25
2023/10/30 01:06:44;;;;;;;7.32;0.57;;;8.80;99.90;;;;;;5094378;28;20047;-25
2023/10/30 01:09:11;;;;;;;4.68;0.73;;;8.80;99.90;;;;;;5094024;28;20048;-25
2023/10/30 01:11:37;;;;;;;4.32;0.90;;;8.80;99.90;;;;;;5092653;28;20044;-26
2023/10/30 01:14:03;;;;;;;5.28;0.65;;;8.80;99.90;;;;;;5094856;28;20051;-25
2023/10/30 01:16:29;;;;;;;3.65;0.45;;;8.80;99.90;;;;;;5093963;28;20512;-25
2023/10/30 01:18:55;;;;;;;2.70;0.40;;;8.90;99.90;;;;;;5094765;28;20051;-25
2023/10/30 01:21:20;;;;;;;5.20;1.38;;;8.90;99.90;;;;;;5093917;28;20425;-25
2023/10/30 01:23:46;;;;;;;3.97;0.75;;;8.90;99.90;;;;;;5093907;28;20044;-25
2023/10/30 01:26:12;;;;;;;3.13;0.68;;;8.90;99.90;;;;;;5093832;28;20051;-25
2023/10/30 01:28:38;;;;;;;3.53;0.70;;;8.90;99.90;;;;;;5093827;28;20048;-25
2023/10/30 01:31:04;;;;;;;3.17;0.65;;;8.90;99.90;;;;;;5093655;28;20067;-25
2023/10/30 01:33:31;;;;;;;4.93;0.65;;;8.90;99.90;;;;;;5093844;28;20100;-25
2023/10/30 01:35:57;;;;;;;4.45;0.50;;;8.90;99.90;;;;;;5093416;28;20075;-25
2023/10/30 01:38:22;;;;;;;2.10;0.50;;;8.90;99.90;;;;;;5093716;28;20489;-25
2023/10/30 01:40:50;;;;;;;3.55;0.32;;;8.90;99.90;;;;;;5094016;28;20101;-25
2023/10/30 01:43:16;;;;;;;4.80;0.70;;;9.00;99.90;;;;;;5094009;28;20442;-25
2023/10/30 01:45:42;;;;;;;2.05;0.40;;;9.00;99.90;;;;;;5093745;28;20051;-25
2023/10/30 01:48:09;;;;;;;3.65;0.40;;;8.90;99.90;;;;;;5093641;28;20059;-25
2023/10/30 01:50:36;;;;;;;4.22;0.40;;;8.90;99.90;;;;;;5092583;28;20533;-25
2023/10/30 01:53:03;;;;;;;1.92;0.38;;;8.90;99.90;;;;;;5092386;28;20044;-25
2023/10/30 01:55:29;;;;;;;5.38;0.60;;;8.90;99.90;;;;;;5093615;28;20523;-25
2023/10/30 01:57:56;;;;;;;3.08;0.73;;;9.00;99.90;;;;;;5093558;28;20071;-25
2023/10/30 02:00:22;;;;;;;2.83;0.40;;;9.00;99.90;;;;;;5092301;28;20052;-25
2023/10/30 02:02:49;;;;;;;0.85;0.30;;;9.00;99.90;;;;;;5093219;28;20044;-25
2023/10/30 02:05:15;;;;;;;3.08;0.70;;;9.00;99.90;;;;;;5093160;28;20398;-25
2023/10/30 02:07:41;;;;;;;3.25;0.52;;;8.90;99.90;;;;;;5093315;28;20055;-25
2023/10/30 02:10:07;;;;;;;3.53;1.20;;;8.80;99.90;;;;;;5093413;28;20044;-25
2023/10/30 02:12:35;;;;;;;3.13;0.50;;;8.80;99.90;;;;;;5093465;28;20058;-25
2023/10/30 02:15:00;;;;;;;2.35;0.47;;;8.70;99.90;;;;;;5093435;28;20056;-25
2023/10/30 02:17:26;;;;;;;3.53;0.70;;;8.70;99.90;;;;;;5093316;28;20044;-25
2023/10/30 02:19:52;;;;;;;3.22;0.50;;;8.70;99.90;;;;;;5093303;28;20090;-25
2023/10/30 02:22:18;;;;;;;2.20;0.50;;;8.60;99.90;;;;;;5091806;28;20079;-25
2023/10/30 02:24:43;;;;;;;7.03;0.95;;;8.60;99.90;;;;;;5092296;28;20079;-25
2023/10/30 02:27:09;;;;;;;4.25;0.77;;;8.50;99.90;;;;;;5093230;28;20040;-25
2023/10/30 02:29:35;;;;;;;3.95;1.23;;;8.50;99.90;;;;;;5092891;28;20097;-25
2023/10/30 02:32:01;;;;;;;3.28;0.70;;;8.50;99.90;;;;;;5093264;28;20051;-25
2023/10/30 02:34:26;;;;;;;6.28;0.93;;;8.50;99.90;;;;;;5093169;28;20490;-25
2023/10/30 02:36:54;;;;;;;5.18;0.75;;;8.50;99.90;;;;;;5092842;28;20040;-25
2023/10/30 02:39:20;;;;;;;6.03;1.73;;;8.50;99.90;;;;;;5097301;28;20127;-25
2023/10/30 02:41:46;;;;;;;4.63;1.08;;;8.40;99.90;;;;;;5096785;28;20190;-25
2023/10/30 02:44:12;;;;;;;4.95;1.23;;;8.50;99.90;;;;;;5097333;28;20040;-25
2023/10/30 02:46:37;;;;;;;5.82;1.02;;;8.50;99.90;;;;;;5097022;28;20534;-25
2023/10/30 02:49:03;;;;;;;4.32;1.05;;;8.50;99.90;;;;;;5097234;28;20071;-25
2023/10/30 02:51:29;;;;;;;4.88;1.08;;;8.40;99.90;;;;;;5095505;28;20404;-24
2023/10/30 02:53:55;;;;;;;4.72;1.08;;;8.50;99.90;;;;;;5097449;28;20044;-24
2023/10/30 02:56:21;;;;;;;3.45;1.15;;;8.50;99.90;;;;;;5095087;28;20486;-24
2023/10/30 02:58:46;;;;;;;5.28;1.17;;;8.40;99.90;;;;;;5096552;28;20048;-25
2023/10/30 03:01:12;;;;;;;6.60;1.20;;;8.40;99.90;;;;;;5096447;28;20051;-24
2023/10/30 03:03:39;;;;;;;6.85;1.15;;;8.40;99.90;;;;;;5096370;28;20089;-25
2023/10/30 03:06:05;;;;;;;3.63;1.75;;;8.40;99.90;;;;;;5095147;28;20051;-24
2023/10/30 03:08:30;;;;;;;8.23;1.70;;;8.40;99.90;;;;;;5096659;28;20043;-24
2023/10/30 03:10:56;;;;;;;8.07;1.67;;;8.40;99.90;;;;;;5096214;28;20036;-24
2023/10/30 03:13:23;;;;;;;4.95;1.40;;;8.40;99.90;;;;;;5095917;28;20052;-24
2023/10/30 03:15:49;;;;;;;9.00;1.70;;;8.50;99.90;;;;;;5096798;28;20097;-24
2023/10/30 03:18:14;;;;;;;10.98;2.00;;;8.50;99.90;;;;;;5096121;28;20123;-24
2023/10/30 03:20:40;;;;;;;7.25;2.00;;;8.50;99.90;;;;;;5096148;28;20047;-24
2023/10/30 03:23:06;;;;;;;5.32;1.92;;;8.60;99.90;;;;;;5096062;28;20044;-24
2023/10/30 03:25:32;;;;;;;7.07;1.60;;;8.50;99.90;;;;;;5096040;28;20040;-24
2023/10/30 03:27:57;;;;;;;6.40;1.40;;;8.60;99.90;;;;;;5096540;28;20098;-25
2023/10/30 03:30:23;;;;;;;6.55;1.45;;;8.70;99.90;;;;;;5077974;28;20044;-25
2023/10/30 03:32:49;;;;;;;7.80;1.48;;;8.70;99.90;;;;;;5096179;28;20486;-25
2023/10/30 03:35:15;;;;;;;6.05;1.25;;;8.70;99.90;;;;;;5077786;28;20044;-24
2023/10/30 03:37:41;;;;;;;9.32;1.90;;;8.70;99.90;;;;;;5095815;28;20221;-24
2023/10/30 03:40:07;;;;;;;14.50;2.13;;;8.70;99.90;;;;;;5095715;28;20086;-24
2023/10/30 03:42:33;;;;;;;12.82;3.05;;;8.70;99.90;;;;;;5096263;28;20044;-24
2023/10/30 03:44:58;;;;;;;6.97;1.38;;;8.70;99.90;;;;;;5094449;28;20135;-24
2023/10/30 03:47:24;;;;;;;9.82;1.38;;;8.70;99.90;;;;;;5095913;28;20059;-24
2023/10/30 03:49:50;;;;;;;6.45;1.65;;;8.70;99.90;;;;;;5095098;28;20044;-24
2023/10/30 03:52:16;;;;;;;11.60;2.42;;;8.70;99.90;;;;;;5095374;28;20040;-24
2023/10/30 03:54:41;;;;;;;10.00;1.67;;;8.70;99.90;;;;;;5096027;28;20043;-24
2023/10/30 03:57:10;;;;;;;6.15;1.40;;;8.70;99.90;;;;;;5094377;28;20044;-24
2023/10/30 03:59:36;;;;;;;6.65;1.90;;;8.70;99.90;;;;;;5095290;28;20181;-24
2023/10/30 04:02:02;;;;;;;7.05;1.42;;;8.70;99.90;;;;;;5095232;28;20119;-24
2023/10/30 04:04:28;;;;;;;7.28;1.60;;;8.60;99.90;;;;;;5095302;28;20407;-24
2023/10/30 04:06:54;;;;;;;7.80;1.55;;;8.60;99.90;;;;;;5095359;28;20131;-24
2023/10/30 04:09:19;;;;;;;12.23;1.88;;;8.60;99.90;;;;;;5093922;28;20051;-24
2023/10/30 04:11:46;;;;;;;7.55;1.48;;;8.70;99.90;;;;;;5095004;28;20040;-24
2023/10/30 04:14:12;;;;;;;10.18;1.90;;;8.70;99.90;;;;;;5093695;28;20149;-24
2023/10/30 04:16:38;;;;;;;6.78;1.98;;;8.70;99.90;;;;;;5095046;28;20444;-24
2023/10/30 04:19:04;;;;;;;14.63;1.58;;;8.70;99.90;;;;;;5094984;28;20044;-24
2023/10/30 04:21:30;;;;;;;9.93;1.58;;;8.70;99.90;;;;;;5093776;28;20079;-24
2023/10/30 04:23:56;;;;;;;10.55;1.65;;;8.70;99.90;;;;;;5095706;28;20101;-24
2023/10/30 04:26:21;;;;;;;13.32;2.25;;;8.70;99.90;;;;;;5094756;28;20052;-24
2023/10/30 04:28:47;;;;;;;12.85;1.52;;;8.70;99.90;;;;;;5094792;28;20040;-24
2023/10/30 04:31:13;;;;;;;11.60;1.38;;;8.70;99.90;;;;;;5095161;28;20043;-24
2023/10/30 04:33:39;;;;;;;9.27;1.55;;;8.70;99.90;;;;;;5095501;28;20071;-24
2023/10/30 04:36:05;;;;;;;16.35;3.42;;;8.70;99.90;;;;;;5094879;28;20071;-24
2023/10/30 04:38:32;;;;;;;12.25;1.77;;;8.80;99.90;;;;;;5094614;28;20094;-24
2023/10/30 04:40:58;;;;;;;9.45;2.00;;;8.80;99.90;;;;;;5093388;28;20036;-24
2023/10/30 04:43:24;;;;;;;8.93;1.70;;;8.80;99.90;;;;;;5094856;28;20055;-24
2023/10/30 04:45:49;;;;;;;6.82;1.60;;;8.80;99.90;;;;;;5094461;28;20414;-24
2023/10/30 04:48:15;;;;;;;9.60;1.88;;;8.80;99.90;;;;;;5093413;28;20047;-25
2023/10/30 04:50:41;;;;;;;10.98;1.80;;;8.80;99.90;;;;;;5094279;28;20082;-24
2023/10/30 04:53:07;;;;;;;12.07;2.00;;;8.80;99.90;;;;;;5094640;28;20044;-24
2023/10/30 04:55:34;;;;;;;9.35;1.50;;;8.80;99.90;;;;;;5093331;28;20079;-24
2023/10/30 04:58:00;;;;;;;13.88;2.05;;;8.80;99.90;;;;;;5094295;28;20094;-24
2023/10/30 05:00:26;;;;;;;10.25;1.85;;;9.00;99.90;;;;;;5093015;28;20052;-24
2023/10/30 05:02:52;;;;;;;7.50;1.42;;;9.00;99.90;;;;;;5094243;28;20052;-24
2023/10/30 05:05:18;;;;;;;8.80;1.52;;;9.10;99.90;;;;;;5093516;28;20048;-24
2023/10/30 05:07:44;;;;;;;7.68;2.10;;;9.20;99.90;;;;;;5094885;28;20048;-24
2023/10/30 05:10:12;;;;;;;8.43;1.90;;;9.20;99.90;;;;;;5094378;28;20496;-24
2023/10/30 05:12:38;;;;;;;8.18;1.67;;;9.10;99.90;;;;;;5092844;28;20063;-25
2023/10/30 05:15:08;;;;;;;10.27;1.35;;;9.10;99.90;;;;;;5093691;28;20044;-24
2023/10/30 05:17:39;;;;;;;11.00;1.58;;;9.10;99.90;;;;;;5094038;28;20128;-24
2023/10/30 05:20:06;;;;;;;9.10;1.63;;;9.00;99.90;;;;;;5094855;28;20048;-24
2023/10/30 05:22:34;;;;;;;6.70;1.25;;;8.90;99.90;;;;;;5092719;28;20413;-24
2023/10/30 05:25:03;;;;;;;11.93;1.50;;;8.90;99.90;;;;;;5093932;28;20044;-24
2023/10/30 05:27:30;;;;;;;8.60;1.85;;;8.80;99.90;;;;;;5093857;28;20043;-24
2023/10/30 05:29:56;;;;;;;14.40;1.88;;;8.70;99.90;;;;;;5092834;28;20108;-24
2023/10/30 05:32:21;;;;;;;11.15;1.40;;;8.70;99.90;;;;;;5093385;28;20051;-24
2023/10/30 05:34:48;;;;;;;10.07;1.70;;;8.70;99.90;;;;;;5093055;28;20044;-24
2023/10/30 05:37:15;;;;;;;9.13;1.70;;;8.60;99.90;;;;;;5093746;28;20040;-24
2023/10/30 05:39:42;;;;;;;10.23;1.63;;;8.60;99.90;;;;;;5094308;28;20044;-24
2023/10/30 05:42:08;;;;;;;8.70;1.63;;;8.60;99.90;;;;;;5094278;28;20044;-24
2023/10/30 05:44:33;;;;;;;12.20;2.22;;;8.60;99.90;;;;;;5093503;28;20214;-24
2023/10/30 05:46:59;;;;;;;12.52;1.58;;;8.60;99.90;;;;;;5093675;28;20118;-24
2023/10/30 05:49:26;;;;;;;9.38;1.52;;;8.50;99.90;;;;;;5092939;28;20442;-24
2023/10/30 05:51:53;;;;;;;8.80;1.95;;;8.50;99.90;;;;;;5093534;28;20094;-24
2023/10/30 05:54:19;;;;;;;7.72;1.38;;;8.50;99.90;;;;;;5092468;28;20465;-24
2023/10/30 05:56:45;;;;;;;10.55;1.58;;;8.40;99.90;;;;;;5093634;28;20044;-24
2023/10/30 05:59:10;;;;;;;15.70;2.53;;;8.40;99.90;;;;;;5094149;28;20044;-24
2023/10/30 06:01:36;;;;;;;14.98;2.25;;;8.30;99.90;;;;;;5093261;28;20066;-24
2023/10/30 06:04:02;;;;;;;8.32;1.85;;;8.30;99.90;;;;;;5092315;28;20044;-24
2023/10/30 06:06:28;;;;;;;10.18;2.38;;;8.30;99.90;;;;;;5092376;28;20430;-24
2023/10/30 06:08:54;;;;;;;15.95;2.28;;;8.30;99.90;;;;;;5094043;28;20044;-24
2023/10/30 06:11:20;;;;;;;10.27;1.63;;;8.20;99.90;;;;;;5093700;28;20052;-24
2023/10/30 06:13:46;;;;;;;9.68;1.38;;;8.20;99.90;;;;;;5096713;28;20067;-24
2023/10/30 06:16:18;;;;;;;7.25;1.35;;;8.10;99.90;;;;;;5095844;28;20052;-24
2023/10/30 06:18:47;;;;;;;13.90;2.10;;;8.10;99.90;;;;;;5097296;28;20118;-23
2023/10/30 06:21:17;;;;;;;5.85;1.00;;;8.10;99.90;;;;;;5097256;28;20119;-23
2023/10/30 06:23:43;;;;;;;14.27;1.77;;;8.10;99.90;;;;;;5097195;28;20044;-23
2023/10/30 06:26:10;;;;;;;15.07;1.88;;;8.00;99.90;;;;;;5097184;28;20482;-23
2023/10/30 06:28:37;;;;;;;14.23;1.83;;;8.00;99.90;;;;;;5097142;28;20055;-23
2023/10/30 06:31:04;;;;;;;11.65;2.20;;;8.10;99.90;;;;;;5095866;28;20553;-23
2023/10/30 06:33:33;;;;;;;12.18;1.83;;;8.10;99.90;;;;;;5097084;28;20044;-23
2023/10/30 06:36:00;;;;;;;10.02;1.50;;;8.10;99.90;;;;;;5095816;28;20049;-23
2023/10/30 06:38:27;;;;;;;5.38;1.10;;;8.20;99.90;;;;;;5097555;28;20059;-23
2023/10/30 06:40:54;;;;;;;11.55;2.20;;;8.20;99.90;;;;;;5080037;28;20083;-23
2023/10/30 06:43:19;;;;;;;4.90;1.48;;;8.20;99.90;;;;;;5095949;28;20055;-23
2023/10/30 06:45:45;;;;;;;11.70;2.92;;;8.20;99.90;;;;;;5096815;28;20055;-23
2023/10/30 06:48:11;;;;;;;12.77;1.48;;;8.20;99.90;;;;;;5096772;28;20060;-23
2023/10/30 06:50:37;;;;;;;11.45;1.80;;;8.30;99.90;;;;;;5095484;28;20123;-23
2023/10/30 06:53:02;;;;;;;9.70;1.60;;;8.30;99.90;;;;;;5096589;28;20044;-23
2023/10/30 06:55:28;;;;;;;10.98;1.58;;;8.40;99.90;;;;;;5095440;28;20055;-23
2023/10/30 06:57:54;;;;;;;12.75;2.22;;;8.50;99.90;;;;;;5096558;28;20044;-24
2023/10/30 07:00:20;;;;;;;7.00;1.27;;;8.50;99.90;;;;;;5096479;28;20048;-23
2023/10/30 07:02:46;;;;;;;12.85;1.85;;;8.60;99.90;;;;;;5095544;28;20059;-23
2023/10/30 07:05:12;;;;;;;7.10;1.20;;;8.70;99.90;;;;;;5096363;28;20044;-23
2023/10/30 07:07:37;;;;;;;7.18;1.40;;;8.80;99.90;;;;;;5096236;28;20077;-23
2023/10/30 07:10:04;;;;;;;6.68;1.90;;;8.90;99.90;;;;;;5096276;28;20040;-23
2023/10/30 07:12:30;;;;;;;6.60;1.60;;;8.90;99.90;;;;;;5095342;28;20440;-23
2023/10/30 07:14:55;;;;;;;7.28;1.35;;;8.90;99.90;;;;;;5095088;28;20189;-23
2023/10/30 07:17:21;;;;;;;9.18;1.75;;;9.00;99.90;;;;;;5096944;28;20130;-23
2023/10/30 07:19:48;;;;;;;12.43;2.20;;;9.10;99.90;;;;;;5096136;28;20044;-23
2023/10/30 07:22:14;;;;;;;12.68;1.38;;;9.10;99.90;;;;;;5095823;28;20502;-23
2023/10/30 07:24:40;;;;;;;11.57;1.95;;;9.20;99.90;;;;;;5095898;28;20225;-23
2023/10/30 07:27:06;;;;;;;12.75;1.83;;;9.30;99.90;;;;;;5096825;28;20146;-23
2023/10/30 07:29:31;;;;;;;13.23;2.00;;;9.40;99.90;;;;;;5094973;28;20398;-23
2023/10/30 07:31:58;;;;;;;7.28;1.70;;;9.50;99.90;;;;;;5077926;28;20047;-23
2023/10/30 07:34:24;;;;;;;12.15;2.58;;;9.50;99.90;;;;;;5095836;28;20438;-23
2023/10/30 07:36:49;;;;;;;8.57;1.40;;;9.60;99.90;;;;;;5096623;28;20044;-23
2023/10/30 07:39:15;;;;;;;16.92;2.80;;;9.60;99.90;;;;;;5095776;28;20050;-23
2023/10/30 07:41:41;;;;;;;9.90;1.33;;;9.60;99.90;;;;;;5094547;28;20048;-23
2023/10/30 07:44:09;;;;;;;10.48;1.92;;;9.70;99.90;;;;;;5094650;28;20036;-24
2023/10/30 07:46:35;;;;;;;13.75;2.17;;;9.80;99.90;;;;;;5095918;28;20040;-23
2023/10/30 07:49:06;;;;;;;13.43;2.25;;;9.90;99.90;;;;;;5095590;28;20410;-23
2023/10/30 07:51:32;;;;;;;11.75;1.85;;;10.00;99.90;;;;;;5095521;28;20134;-23
2023/10/30 07:53:59;;;;;;;20.08;2.75;;;10.10;99.90;;;;;;5095507;28;20090;-23
2023/10/30 07:56:25;;;;;;;12.00;1.77;;;10.20;99.90;;;;;;5095426;28;20090;-24
2023/10/30 07:58:51;;;;;;;8.80;1.42;;;10.20;99.90;;;;;;5094241;28;20040;-23
2023/10/30 08:01:20;;;;;;;6.68;1.30;;;10.30;99.90;;;;;;5095907;28;20076;-23
2023/10/30 08:03:46;;;;;;;10.50;1.92;;;10.40;99.90;;;;;;5096129;28;20083;-23
2023/10/30 08:06:15;;;;;;;16.83;2.25;;;10.50;99.90;;;;;;5095459;28;20402;-24
2023/10/30 08:08:41;;;;;;;9.98;2.83;;;10.50;99.90;;;;;;5095181;28;20040;-24
2023/10/30 08:11:07;;;;;;;12.98;1.83;;;10.50;99.90;;;;;;5095047;28;20036;-24
2023/10/30 08:13:33;;;;;;;9.90;2.35;;;10.50;99.90;;;;;;5094830;28;20139;-24
2023/10/30 08:15:59;;;;;;;11.05;2.25;;;10.50;99.90;;;;;;5095030;28;20056;-24
2023/10/30 08:18:25;;;;;;;14.80;2.15;;;10.50;99.90;;;;;;5094985;28;20048;-24
2023/10/30 08:20:51;;;;;;;12.35;1.80;;;10.60;99.90;;;;;;5094993;28;20062;-23
2023/10/30 08:23:17;;;;;;;10.27;1.58;;;10.60;99.90;;;;;;5094549;28;20104;-23
2023/10/30 08:25:43;;;;;;;12.02;1.77;;;10.60;99.90;;;;;;5094893;28;20044;-23
2023/10/30 08:28:09;;;;;;;10.80;1.70;;;10.70;99.90;;;;;;5095113;28;20473;-23
2023/10/30 08:30:35;;;;;;;11.60;2.00;;;10.70;99.90;;;;;;5094548;28;20070;-24
2023/10/30 08:33:04;;;;;;;13.77;2.58;;;10.70;99.90;;;;;;5094717;28;20082;-23
2023/10/30 08:35:32;;;;;;;11.30;2.00;;;10.80;99.90;;;;;;5094366;28;20082;-23
2023/10/30 08:37:59;;;;;;;14.45;2.50;;;10.80;99.90;;;;;;5094659;28;20080;-23
2023/10/30 08:40:25;;;;;;;11.73;2.35;;;10.80;99.90;;;;;;5094609;28;20572;-23
2023/10/30 08:42:51;;;;;;;11.20;1.55;;;10.90;99.90;;;;;;5093362;28;20091;-24
2023/10/30 08:45:17;;;;;;;10.98;1.67;;;10.90;99.90;;;;;;5095288;28;20044;-24
2023/10/30 08:47:43;;;;;;;12.35;1.77;;;11.00;99.90;;;;;;5094488;28;20044;-24
2023/10/30 08:50:10;;;;;;;11.15;1.85;;;11.00;99.90;;;;;;5094495;28;20104;-24
2023/10/30 08:52:36;;;;;;;9.93;1.50;;;11.00;99.90;;;;;;5093088;28;20398;-24
2023/10/30 08:55:04;;;;;;;10.63;2.25;;;11.00;99.90;;;;;;5076464;28;20051;-24
2023/10/30 08:57:30;;;;;;;6.65;1.70;;;11.10;99.90;;;;;;5093159;28;20044;-24
2023/10/30 08:59:55;;;;;;;10.90;1.75;;;11.20;99.90;;;;;;5094194;28;20044;-24
2023/10/30 09:02:21;;;;;;;10.35;1.90;;;11.30;99.90;;;;;;5093341;28;20040;-24
2023/10/30 09:04:47;;;;;;;13.68;2.78;;;11.40;99.90;;;;;;5093810;28;20048;-24
2023/10/30 09:07:13;;;;;;;9.48;1.92;;;11.50;99.90;;;;;;5094567;28;20048;-24
2023/10/30 09:09:39;;;;;;;11.65;2.28;;;11.60;99.90;;;;;;5092920;28;20393;-24
2023/10/30 09:12:05;;;;;;;10.10;1.73;;;11.90;99.90;;;;;;5094595;28;20036;-24
2023/10/30 09:14:30;;;;;;;9.68;1.60;;;12.20;99.90;;;;;;5093968;28;20062;-24
2023/10/30 09:16:56;;;;;;;5.85;1.70;;;12.40;99.90;;;;;;5092807;28;20048;-24
2023/10/30 09:19:22;;;;;;;9.35;1.85;;;12.40;99.90;;;;;;5094524;28;20040;-24
2023/10/30 09:21:48;;;;;;;6.30;1.55;;;12.40;99.90;;;;;;5094007;28;20105;-24
2023/10/30 09:24:14;;;;;;;10.07;2.13;;;12.30;99.90;;;;;;5093981;28;20048;-25
2023/10/30 09:26:40;;;;;;;9.65;1.90;;;12.40;99.90;;;;;;5094163;28;20383;-23
2023/10/30 09:29:06;;;;;;;8.52;1.70;;;12.60;99.90;;;;;;5094088;28;20462;-24
2023/10/30 09:31:33;;;;;;;9.82;1.52;;;12.50;99.90;;;;;;5093747;28;20522;-24
2023/10/30 09:33:59;;;;;;;11.52;2.10;;;12.30;99.90;;;;;;5094420;28;20066;-24
2023/10/30 09:36:25;;;;;;;10.48;2.10;;;12.20;99.90;;;;;;5093865;28;20451;-23
2023/10/30 09:38:51;;;;;;;13.23;2.33;;;12.30;99.90;;;;;;5094270;28;20055;-24
2023/10/30 09:41:18;;;;;;;15.45;2.95;;;12.30;99.90;;;;;;5093604;28;20185;-24
2023/10/30 09:43:51;;;;;;;13.18;2.10;;;12.50;99.90;;;;;;5093735;28;20055;-23
2023/10/30 09:46:21;;;;;;;11.10;1.85;;;12.70;99.90;;;;;;5093674;28;20044;-24
2023/10/30 09:48:48;;;;;;;12.48;2.38;;;12.90;99.90;;;;;;5097065;28;20497;-24
2023/10/30 09:51:14;;;;;;;9.02;1.75;;;13.20;99.90;;;;;;5097749;28;20040;-24
2023/10/30 09:53:42;;;;;;;10.45;2.20;;;13.50;99.90;;;;;;5098315;28;20101;-24
2023/10/30 09:56:08;;;;;;;10.93;2.28;;;13.60;99.90;;;;;;5097752;28;20535;-24
2023/10/30 09:58:37;;;;;;;10.82;2.13;;;13.60;99.90;;;;;;5096529;28;20048;-24
2023/10/30 10:01:03;;;;;;;10.80;2.13;;;13.50;99.90;;;;;;5097372;28;20573;-24
2023/10/30 10:03:29;;;;;;;9.38;1.83;;;13.60;99.90;;;;;;5097655;28;20048;-24
2023/10/30 10:05:56;;;;;;;11.23;1.70;;;13.60;99.90;;;;;;5097463;28;20127;-24
2023/10/30 10:08:23;;;;;;;7.47;1.33;;;13.70;99.90;;;;;;5097537;28;20048;-24
2023/10/30 10:11:01;;;;;;;12.65;2.00;;;13.80;99.90;;;;;;5097063;28;20048;-24
2023/10/30 10:13:33;;;;;;;10.45;1.80;;;14.00;99.90;;;;;;5097746;28;20465;-24
2023/10/30 10:16:01;;;;;;;9.77;2.30;;;13.90;99.90;;;;;;5097431;28;20088;-24
2023/10/30 10:18:31;;;;;;;9.52;1.73;;;13.90;99.90;;;;;;5097061;28;20490;-24
2023/10/30 10:21:04;;;;;;;9.20;2.15;;;14.20;99.90;;;;;;5097321;28;20173;-24
2023/10/30 10:23:31;;;;;;;;;;;14.30;99.90;;;;;;5096528;28;20052;-24
2023/10/30 10:26:06;;;;;;;12.60;1.98;;;14.20;99.90;;;;;;5097282;28;19965;-24
2023/10/30 10:28:33;;;;;;;10.27;1.92;;;14.20;99.90;;;;;;5095688;28;20051;-24
2023/10/30 10:30:59;;;;;;;9.73;1.90;;;14.00;99.90;;;;;;5097071;28;20044;-24
2023/10/30 10:33:30;;;;;;;15.02;2.13;;;13.80;99.90;;;;;;5095916;28;20106;-24
2023/10/30 10:36:00;;;;;;;8.10;1.65;;;13.90;99.90;;;;;;5097626;28;20047;-24
2023/10/30 10:38:27;;;;;;;7.78;1.85;;;14.00;99.90;;;;;;5097041;28;20055;-23
2023/10/30 10:40:54;;;;;;;10.25;2.22;;;14.10;99.90;;;;;;5095963;28;20052;-24
2023/10/30 10:43:22;;;;;;;9.88;2.15;;;14.00;99.90;;;;;;5096872;28;20059;-23
2023/10/30 10:45:52;;;;;;;8.02;1.45;;;13.90;99.90;;;;;;5095844;28;20508;-23
2023/10/30 10:48:18;;;;;;;3.17;0.85;;;14.00;99.90;;;;;;5097890;28;20097;-23
2023/10/30 10:50:46;;;;;;;10.82;1.48;;;13.90;99.90;;;;;;5096940;28;20059;-23
2023/10/30 10:53:12;;;;;;;12.20;1.85;;;14.10;99.90;;;;;;5095746;28;20047;-23
2023/10/30 10:55:46;;;;;;;9.82;1.33;;;14.20;99.90;;;;;;5096941;28;20052;-23
2023/10/30 10:58:17;;;;;;;11.25;1.50;;;14.20;99.90;;;;;;5096028;28;20063;-23
2023/10/30 11:00:47;;;;;;;8.48;1.60;;;14.20;99.90;;;;;;5095902;28;20131;-23
2023/10/30 11:03:13;;;;;;;7.85;1.73;;;14.30;99.90;;;;;;5096528;28;20040;-23
2023/10/30 11:05:40;;;;;;;13.43;1.88;;;14.40;99.90;;;;;;5096551;28;20044;-23
2023/10/30 11:08:11;;;;;;;15.00;2.45;;;14.60;99.90;;;;;;5096301;28;20044;-23
2023/10/30 11:11:07;;;;;;;11.52;1.77;;;14.50;99.90;;;;;;5096585;28;20465;-23
2023/10/30 11:13:42;;;;;;;14.27;3.42;;;14.60;99.90;;;;;;5096499;28;20059;-23
2023/10/30 11:16:16;;;;;;;10.65;1.75;;;14.70;99.90;;;;;;5095899;28;20394;-23
2023/10/30 11:18:42;;;;;;;14.18;2.40;;;14.40;99.90;;;;;;5096250;28;20131;-23
2023/10/30 11:21:10;;;;;;;10.63;2.05;;;14.30;99.90;;;;;;5096152;28;20127;-23
2023/10/30 11:23:45;;;;;;;8.38;2.13;;;14.00;99.90;;;;;;5096081;28;20047;-23
2023/10/30 11:26:39;;;;;;;9.48;2.00;;;13.90;99.90;;;;;;5096052;28;20109;-23
2023/10/30 11:29:16;;;;;;;18.40;2.92;;;14.00;99.90;;;;;;5096638;28;20044;-23
2023/10/30 11:32:01;;;;;;;14.10;2.40;;;14.10;99.90;;;;;;5095628;28;20562;-23
2023/10/30 11:34:34;;;;;;;11.27;2.35;;;14.20;99.90;;;;;;5095948;28;20040;-23
2023/10/30 11:37:14;;;;;;;12.18;2.55;;;14.10;99.90;;;;;;5096491;28;20065;-23
2023/10/30 11:39:42;;;;;;;8.07;1.73;;;14.00;99.90;;;;;;5095845;28;20054;-23
2023/10/30 11:42:32;;;;;;;9.48;1.50;;;13.90;99.90;;;;;;5095734;28;20036;-23
2023/10/30 11:45:24;;;;;;;11.00;1.88;;;13.80;99.90;;;;;;5095775;28;20059;-23
2023/10/30 11:48:05;;;;;;;12.20;1.90;;;13.80;99.90;;;;;;5096215;28;20379;-23
2023/10/30 11:50:42;;;;;;;12.27;2.25;;;13.70;99.90;;;;;;5096200;28;20043;-22
2023/10/30 11:53:10;;;;;;;11.52;2.42;;;13.80;99.90;;;;;;5096126;28;20101;-22
2023/10/30 11:55:40;;;;;;;12.75;3.50;;;13.80;99.90;;;;;;5095475;28;20543;-22
2023/10/30 11:58:09;;;;;;;13.30;3.00;;;13.90;99.90;;;;;;5096343;28;20048;-22
2023/10/30 12:00:35;;;;;;;11.10;2.00;;;13.90;99.90;;;;;;5095640;28;20139;-22
2023/10/30 12:03:01;;;;;;;9.88;1.80;;;13.90;99.90;;;;;;5095609;28;20047;-22
2023/10/30 12:05:27;;;;;;;12.75;1.83;;;14.00;99.90;;;;;;5095322;28;20375;-22
2023/10/30 12:07:53;;;;;;;8.85;1.60;;;14.10;99.90;;;;;;5095289;28;20083;-23
2023/10/30 12:10:19;;;;;;;12.15;1.77;;;14.10;99.90;;;;;;5094277;28;20083;-22
2023/10/30 12:12:45;;;;;;;14.20;2.15;;;14.30;99.90;;;;;;5095151;28;20052;-23
2023/10/30 12:15:10;;;;;;;12.43;2.45;;;14.50;99.90;;;;;;5095110;28;20048;-23
2023/10/30 12:17:38;;;;;;;14.20;2.25;;;14.60;99.90;;;;;;5095101;28;20083;-23
2023/10/30 12:20:04;;;;;;;11.00;2.35;;;14.60;99.90;;;;;;5095009;28;20054;-22
2023/10/30 12:22:31;;;;;;;11.15;1.98;;;14.60;99.90;;;;;;5094987;28;20052;-22
2023/10/30 12:24:58;;;;;;;7.07;1.77;;;14.40;99.90;;;;;;5094935;28;20048;-22
2023/10/30 12:27:25;;;;;;;12.38;1.77;;;14.10;99.90;;;;;;5094740;28;20055;-22
2023/10/30 12:29:57;;;;;;;12.88;2.00;;;14.00;99.90;;;;;;5094872;28;20048;-23
2023/10/30 12:32:27;;;;;;;12.65;1.90;;;14.00;99.90;;;;;;5094802;28;20040;-22
2023/10/30 12:34:53;;;;;;;11.02;2.63;;;13.80;99.90;;;;;;5095560;28;20087;-22
2023/10/30 12:37:21;;;;;;;8.27;1.83;;;13.70;99.90;;;;;;5094761;28;20493;-22
2023/10/30 12:40:00;;;;;;;8.05;1.70;;;13.60;99.90;;;;;;5094650;28;20048;-22
2023/10/30 12:42:27;;;;;;;11.00;1.70;;;13.60;99.90;;;;;;5094238;28;20121;-22
2023/10/30 12:44:53;;;;;;;10.90;1.67;;;13.50;99.90;;;;;;5094250;28;20449;-22
2023/10/30 12:47:18;;;;;;;9.45;2.00;;;13.40;99.90;;;;;;5094579;28;20044;-22